Time;durP1;ratioP1;P1;durP2;ratioP2;P2;SDS_P1;SDS_P2;PMS_P1;PMS_P2;Temp;Humidity;BMP_temperature;BMP_pressure;BME280_temperature;BME280_humidity;BME280_pressure;Samples;Min_cycle;Max_cycle;Signal;HPM_P1;HPM_P2
2024/02/11 00:00:47;;;;;;;19.95;13.45;;;;;;;8.13;98.41;96047.97;5073244;28;20055;-85
2024/02/11 00:03:15;;;;;;;16.90;12.43;;;;;;;8.04;98.05;96009.94;5070088;28;20041;-85
2024/02/11 00:05:41;;;;;;;19.45;13.30;;;;;;;8.14;97.45;96030.19;5075927;28;20019;-85
2024/02/11 00:08:07;;;;;;;21.45;14.15;;;;;;;8.21;97.67;96049.91;5077838;28;20032;-86
2024/02/11 00:10:33;;;;;;;21.38;13.48;;;;;;;8.23;97.53;96061.03;5050677;28;20472;-86
2024/02/11 00:13:01;;;;;;;31.83;18.35;;;;;;;8.05;97.51;96047.91;5077595;28;20028;-86
2024/02/11 00:15:27;;;;;;;34.20;20.75;;;;;;;7.49;100.00;96033.19;5054700;28;20032;-86
2024/02/11 00:17:53;;;;;;;24.60;15.02;;;;;;;7.72;100.00;96009.34;5076606;28;20020;-86
2024/02/11 00:20:19;;;;;;;26.60;16.92;;;;;;;7.98;99.61;96040.38;5054367;28;20118;-86
2024/02/11 00:22:45;;;;;;;39.03;21.73;;;;;;;7.43;100.00;96013.16;5092214;28;20144;-86
2024/02/11 00:25:10;;;;;;;35.22;21.50;;;;;;;6.74;100.00;95944.56;5093413;28;20031;-86
2024/02/11 00:27:42;;;;;;;45.10;24.02;;;;;;;6.71;100.00;95953.88;5050536;28;20059;-86
2024/02/11 00:30:09;;;;;;;48.60;24.45;;;;;;;7.09;100.00;96012.81;5056479;28;20032;-86
2024/02/11 00:32:34;;;;;;;43.28;25.83;;;;;;;7.22;100.00;96021.84;5073884;28;20030;-86
2024/02/11 00:35:00;;;;;;;43.55;26.10;;;;;;;7.25;100.00;96032.63;5059506;28;20028;-86
2024/02/11 00:37:29;;;;;;;44.10;26.65;;;;;;;7.09;100.00;96010.16;5054727;28;20553;-85
2024/02/11 00:39:55;;;;;;;50.13;31.55;;;;;;;6.60;100.00;95949.06;5075937;28;20067;-85
2024/02/11 00:42:20;;;;;;;50.83;29.52;;;;;;;6.90;100.00;95993.56;5057767;28;20036;-85
2024/02/11 00:44:46;;;;;;;49.65;28.55;;;;;;;7.27;100.00;95995.22;5043689;28;20436;-86
2024/02/11 00:47:11;;;;;;;47.40;28.48;;;;;;;6.96;100.00;95984.44;5057462;28;20043;-85
2024/02/11 00:49:36;;;;;;;39.85;24.58;;;;;;;7.24;100.00;96004.53;5069995;28;20309;-86
2024/02/11 00:52:02;;;;;;;44.50;26.17;;;;;;;7.40;100.00;96002.38;5087436;28;20036;-86
2024/02/11 00:54:27;;;;;;;32.03;18.00;;;;;;;7.65;100.00;96003.66;5092487;28;20096;-86
2024/02/11 00:56:55;;;;;;;38.00;23.88;;;;;;;7.47;100.00;95998.22;5075750;28;20439;-85
2024/02/11 00:59:21;;;;;;;32.13;19.00;;;;;;;7.87;100.00;95987.78;5074863;28;20028;-86
2024/02/11 01:01:48;;;;;;;29.05;17.30;;;;;;;8.02;98.74;95990.88;5054709;28;20502;-85
2024/02/11 01:04:14;;;;;;;44.75;25.85;;;;;;;7.62;99.41;95999.78;5076597;28;20416;-86
2024/02/11 01:06:39;;;;;;;48.30;28.23;;;;;;;7.19;100.00;95969.38;5050844;28;20059;-86
2024/02/11 01:09:05;;;;;;;46.25;27.67;;;;;;;6.81;100.00;95929.06;5072586;28;20502;-86
2024/02/11 01:11:31;;;;;;;44.58;27.45;;;;;;;7.00;100.00;95974.78;5092836;28;20034;-86
2024/02/11 01:13:57;;;;;;;32.78;21.15;;;;;;;7.53;100.00;95967.06;5089132;28;20122;-85
2024/02/11 01:16:22;;;;;;;38.03;22.67;;;;;;;7.71;100.00;96013.13;5071604;28;20106;-86
2024/02/11 01:18:48;;;;;;;53.33;30.85;;;;;;;7.45;100.00;95992.41;5094108;28;20028;-86
2024/02/11 01:21:13;;;;;;;32.92;19.88;;;;;;;7.72;100.00;96019.97;5076272;28;20027;-85
2024/02/11 01:23:38;;;;;;;30.48;20.40;;;;;;;7.19;99.94;95914.44;5090479;28;20367;-85
2024/02/11 01:26:04;;;;;;;43.13;24.20;;;;;;;7.78;99.92;96024.88;5079421;28;20114;-85
2024/02/11 01:28:30;;;;;;;37.75;23.77;;;;;;;7.69;100.00;96000.13;5067404;28;20020;-85
2024/02/11 01:30:56;;;;;;;47.13;27.65;;;;;;;7.75;99.68;96006.13;5069894;28;20037;-86
2024/02/11 01:33:23;;;;;;;51.75;31.08;;;;;;;7.92;99.30;96022.19;5077419;28;20097;-85
2024/02/11 01:35:48;;;;;;;43.08;24.33;;;;;;;7.51;100.00;95982.50;5071415;28;20032;-86
2024/02/11 01:38:14;;;;;;;28.35;19.77;;;;;;;8.07;99.32;96019.97;5069088;28;20093;-87
2024/02/11 01:40:40;;;;;;;33.75;21.08;;;;;;;8.25;97.19;96031.50;5071308;28;20047;-87
2024/02/11 01:43:07;;;;;;;33.88;20.80;;;;;;;8.07;98.10;96027.94;5056713;28;20032;-86
2024/02/11 01:45:35;;;;;;;32.90;21.02;;;;;;;8.09;98.06;96024.97;5089454;28;20032;-87
2024/02/11 01:48:04;;;;;;;39.22;25.23;;;;;;;8.01;97.70;96012.44;5057652;28;20036;-85
2024/02/11 01:50:33;;;;;;;59.15;34.60;;;;;;;7.34;100.00;95993.72;5074684;28;20032;-87
2024/02/11 01:52:58;;;;;;;45.30;28.75;;;;;;;7.37;100.00;95998.44;5066493;28;20479;-86
2024/02/11 01:55:25;;;;;;;35.65;23.08;;;;;;;8.01;99.26;95996.50;5071308;28;20028;-86
2024/02/11 01:57:51;;;;;;;41.95;23.23;;;;;;;8.26;97.24;96017.94;5090437;28;20031;-86
2024/02/11 02:00:19;;;;;;;37.80;22.17;;;;;;;7.72;96.86;95935.03;5089734;28;20399;-86
2024/02/11 02:02:45;;;;;;;35.78;23.23;;;;;;;7.97;98.10;96008.81;5059195;28;20032;-87
2024/02/11 02:05:10;;;;;;;37.10;23.90;;;;;;;8.34;96.63;96003.16;5074507;28;20028;-87
2024/02/11 02:07:38;;;;;;;38.45;22.73;;;;;;;8.27;96.05;95987.66;5072853;28;20027;-86
2024/02/11 02:10:04;;;;;;;35.00;22.38;;;;;;;8.22;95.64;95982.41;5057521;28;20135;-86
2024/02/11 02:12:30;;;;;;;38.53;22.60;;;;;;;8.41;96.10;96016.78;5039821;28;20503;-86
2024/02/11 02:14:56;;;;;;;41.35;25.00;;;;;;;7.92;96.83;96003.59;5066414;28;20028;-86
2024/02/11 02:17:22;;;;;;;44.45;26.52;;;;;;;7.70;98.54;96020.28;5056778;28;20495;-86
2024/02/11 02:19:47;;;;;;;40.15;27.23;;;;;;;7.36;100.00;95970.31;5061209;28;20055;-86
2024/02/11 02:22:13;;;;;;;42.78;26.65;;;;;;;8.28;97.53;96018.44;5090179;28;20051;-85
2024/02/11 02:24:38;;;;;;;42.70;25.50;;;;;;;8.25;95.74;95989.00;5075910;28;20103;-86
2024/02/11 02:27:07;;;;;;;40.30;24.27;;;;;;;8.26;96.21;96011.84;5095970;28;20162;-87
2024/02/11 02:29:33;;;;;;;40.45;24.80;;;;;;;8.23;96.37;95993.84;5091987;28;20029;-87
2024/02/11 02:31:58;;;;;;;44.50;25.33;;;;;;;8.20;96.11;95994.44;5095681;28;20051;-86
2024/02/11 02:34:24;;;;;;;39.80;24.55;;;;;;;8.13;96.13;95978.91;5093990;28;20024;-86
2024/02/11 02:36:50;;;;;;;37.72;23.48;;;;;;;8.26;96.10;95990.59;5078230;28;20460;-86
2024/02/11 02:39:16;;;;;;;39.65;23.55;;;;;;;8.26;96.00;96007.31;5067569;28;20085;-86
2024/02/11 02:41:41;;;;;;;38.42;25.17;;;;;;;8.29;95.53;95998.75;5094341;28;20027;-86
2024/02/11 02:44:07;;;;;;;38.03;24.98;;;;;;;8.18;95.05;95964.72;5094585;28;20039;-86
2024/02/11 02:46:32;;;;;;;39.78;24.60;;;;;;;8.07;95.80;95974.81;5091493;28;20445;-86
2024/02/11 02:48:58;;;;;;;41.92;24.92;;;;;;;8.11;96.85;95997.03;5088098;28;20031;-86
2024/02/11 02:51:23;;;;;;;47.10;25.20;;;;;;;8.40;96.45;95993.19;5074467;28;20487;-85
2024/02/11 02:53:51;;;;;;;38.65;24.20;;;;;;;8.37;95.60;95999.09;5093513;28;20063;-86
2024/02/11 02:56:17;;;;;;;41.58;23.75;;;;;;;8.32;95.07;95992.06;5076307;28;20028;-86
2024/02/11 02:58:44;;;;;;;41.42;26.70;;;;;;;8.35;95.10;95993.28;5074420;28;20491;-86
2024/02/11 03:01:17;;;;;;;49.53;29.70;;;;;;;7.96;96.25;95993.94;5088236;28;21979;-85
2024/02/11 03:03:47;;;;;;;41.38;25.35;;;;;;;8.15;96.31;95968.78;5074390;28;20085;-86
2024/02/11 03:06:13;;;;;;;38.33;25.95;;;;;;;8.17;95.40;95987.06;5059648;28;20043;-87
2024/02/11 03:08:38;;;;;;;42.80;25.58;;;;;;;8.40;95.22;95999.28;5076217;28;20091;-87
2024/02/11 03:11:04;;;;;;;40.55;25.45;;;;;;;8.17;95.09;95952.50;5073519;28;20051;-86
2024/02/11 03:13:29;;;;;;;43.13;25.95;;;;;;;8.27;94.80;95977.03;5051606;28;20459;-87
2024/02/11 03:15:54;;;;;;;41.28;26.40;;;;;;;8.44;94.35;95996.78;5078766;28;20046;-87
2024/02/11 03:18:22;;;;;;;40.78;25.75;;;;;;;8.37;94.58;95983.94;5057466;28;20080;-85
2024/02/11 03:20:47;;;;;;;45.88;27.27;;;;;;;8.37;95.25;96004.41;5040162;28;20086;-86
2024/02/11 03:23:13;;;;;;;42.80;26.52;;;;;;;8.26;95.10;95982.63;5078671;28;20032;-87
2024/02/11 03:25:39;;;;;;;40.78;25.52;;;;;;;8.21;95.56;96003.97;5091097;28;20035;-87
2024/02/11 03:28:04;;;;;;;42.55;26.52;;;;;;;8.35;95.22;96022.53;5074905;28;20059;-86
2024/02/11 03:30:30;;;;;;;44.25;25.48;;;;;;;7.97;96.00;95995.53;5055594;28;20570;-85
2024/02/11 03:32:55;;;;;;;47.30;27.52;;;;;;;8.24;95.60;96021.97;5059484;28;20036;-85
2024/02/11 03:35:20;;;;;;;44.92;27.80;;;;;;;8.13;96.40;96020.63;5074602;28;20035;-86
2024/02/11 03:37:46;;;;;;;50.20;30.48;;;;;;;8.04;97.05;96031.19;5062142;28;20115;-86
2024/02/11 03:40:15;;;;;;;44.67;27.88;;;;;;;8.14;96.60;96027.53;5075365;28;20036;-86
2024/02/11 03:42:41;;;;;;;47.97;28.80;;;;;;;8.17;95.68;96037.53;5075209;28;20028;-85
2024/02/11 03:45:11;;;;;;;47.03;30.17;;;;;;;8.02;96.74;96041.31;5074183;28;20533;-86
2024/02/11 03:47:36;;;;;;;43.85;29.40;;;;;;;8.03;96.57;96048.22;5074266;28;20043;-85
2024/02/11 03:50:03;;;;;;;44.92;28.55;;;;;;;8.25;95.94;96047.44;5059512;28;20364;-86
2024/02/11 03:52:28;;;;;;;47.10;29.92;;;;;;;8.05;96.15;96019.50;5075863;28;20031;-85
2024/02/11 03:54:55;;;;;;;46.55;29.70;;;;;;;8.07;96.21;96030.59;5080060;28;20031;-86
2024/02/11 03:57:20;;;;;;;53.85;31.23;;;;;;;8.20;95.74;96036.94;5097406;28;20044;-86
2024/02/11 03:59:46;;;;;;;48.75;28.67;;;;;;;8.07;95.02;96021.84;5073035;28;20109;-86
2024/02/11 04:02:11;;;;;;;64.13;36.20;;;;;;;7.41;96.63;96004.72;5075696;28;20028;-85
2024/02/11 04:04:40;;;;;;;62.45;37.00;;;;;;;7.14;99.50;96025.19;5057229;28;20093;-85
2024/02/11 04:07:10;;;;;;;53.63;33.20;;;;;;;7.84;99.05;96030.88;5093605;28;20059;-86
2024/02/11 04:09:39;;;;;;;48.60;31.08;;;;;;;8.04;96.65;96035.72;5074119;28;20421;-86
2024/02/11 04:12:08;;;;;;;54.47;33.47;;;;;;;8.17;95.81;96045.50;5082185;28;20099;-86
2024/02/11 04:14:36;;;;;;;49.10;31.27;;;;;;;8.06;96.38;96050.25;5074494;28;20119;-87
2024/02/11 04:17:02;;;;;;;49.15;30.83;;;;;;;7.97;96.95;96051.28;5092521;28;20028;-87
2024/02/11 04:19:32;;;;;;;43.08;29.27;;;;;;;8.06;97.01;96057.47;5039004;28;20097;-87
2024/02/11 04:22:00;;;;;;;46.65;30.38;;;;;;;8.17;96.34;96048.16;5054600;28;20032;-86
2024/02/11 04:24:28;;;;;;;46.95;30.17;;;;;;;8.09;95.88;96048.88;5092530;28;20028;-85
2024/02/11 04:26:54;;;;;;;48.30;30.23;;;;;;;7.59;96.79;96021.59;5071286;28;20502;-85
2024/02/11 04:29:20;;;;;;;53.00;31.80;;;;;;;7.90;97.70;96069.50;5057094;28;20028;-86
2024/02/11 04:31:45;;;;;;;54.28;30.23;;;;;;;8.01;97.17;96065.53;5043225;28;20066;-86
2024/02/11 04:34:12;;;;;;;51.15;31.98;;;;;;;8.01;96.75;96057.56;5093480;28;20020;-86
2024/02/11 04:36:38;;;;;;;67.10;37.45;;;;;;;7.38;98.45;96058.34;5093076;28;20032;-86
2024/02/11 04:39:07;;;;;;;49.33;32.78;;;;;;;7.80;98.46;96051.16;5072631;28;20118;-86
2024/02/11 04:41:36;;;;;;;50.92;32.70;;;;;;;7.99;96.57;96051.78;5075542;28;20063;-86
2024/02/11 04:44:05;;;;;;;54.83;33.67;;;;;;;7.95;96.77;96042.84;5073815;28;20402;-86
2024/02/11 04:46:34;;;;;;;58.13;34.60;;;;;;;8.17;95.66;96053.47;5075623;28;20368;-86
2024/02/11 04:49:01;;;;;;;57.20;32.00;;;;;;;8.10;95.47;96053.88;5072458;28;20093;-86
2024/02/11 04:51:29;;;;;;;54.80;33.40;;;;;;;8.02;96.67;96053.81;5093875;28;20032;-86
2024/02/11 04:53:57;;;;;;;54.60;33.22;;;;;;;7.93;96.31;96048.44;5078198;28;20156;-86
2024/02/11 04:56:24;;;;;;;55.20;33.00;;;;;;;7.80;95.99;95998.81;5070154;28;20624;-86
2024/02/11 04:58:51;;;;;;;68.38;39.90;;;;;;;7.93;95.97;96051.09;5074794;28;20048;-86
2024/02/11 05:01:16;;;;;;;59.35;34.10;;;;;;;7.92;97.18;96041.56;5073008;28;20032;-86
2024/02/11 05:03:46;;;;;;;60.40;34.03;;;;;;;7.93;95.88;96007.84;5076476;28;20392;-86
2024/02/11 05:06:12;;;;;;;55.45;33.72;;;;;;;7.60;95.75;95985.97;5058869;28;20028;-87
2024/02/11 05:08:38;;;;;;;58.33;33.85;;;;;;;7.92;96.71;96048.75;5073997;28;20032;-86
2024/02/11 05:11:05;;;;;;;61.00;34.58;;;;;;;8.07;96.38;96041.22;5073230;28;20042;-86
2024/02/11 05:13:32;;;;;;;54.97;32.70;;;;;;;7.93;95.25;96016.56;5057611;28;20028;-86
2024/02/11 05:16:01;;;;;;;63.90;35.78;;;;;;;7.86;96.64;96041.97;5074237;28;20032;-86
2024/02/11 05:18:29;;;;;;;56.15;34.80;;;;;;;8.09;95.44;96024.97;5094925;28;20425;-86
2024/02/11 05:20:56;;;;;;;60.13;36.33;;;;;;;7.62;96.92;96046.75;5053010;28;20032;-86
2024/02/11 05:23:22;;;;;;;60.10;35.60;;;;;;;7.99;96.32;96038.50;5092639;28;20559;-86
2024/02/11 05:25:47;;;;;;;60.00;35.70;;;;;;;8.04;95.02;96033.06;5094851;28;20052;-86
2024/02/11 05:28:15;;;;;;;61.20;36.00;;;;;;;8.09;95.51;96046.22;5092707;28;20042;-86
2024/02/11 05:30:45;;;;;;;53.97;31.73;;;;;;;8.07;95.73;96051.06;5070435;28;20097;-86
2024/02/11 05:33:16;;;;;;;54.67;33.47;;;;;;;7.86;95.88;96021.53;5088918;28;20051;-86
2024/02/11 05:35:43;;;;;;;59.75;33.72;;;;;;;8.03;96.82;96058.06;5081172;28;20119;-86
2024/02/11 05:38:10;;;;;;;62.45;35.17;;;;;;;7.79;95.76;96018.50;5070397;28;20498;-87
2024/02/11 05:40:45;;;;;;;58.45;34.55;;;;;;;7.95;95.59;96050.81;5053380;28;20036;-85
2024/02/11 05:43:20;;;;;;;56.17;33.20;;;;;;;8.06;96.31;96050.25;5075558;28;20031;-87
2024/02/11 05:45:46;;;;;;;63.22;34.92;;;;;;;7.96;96.22;96047.84;5088973;28;20501;-87
2024/02/11 05:48:13;;;;;;;58.70;33.30;;;;;;;8.05;95.96;96061.19;5090942;28;20020;-86
2024/02/11 05:50:39;;;;;;;60.78;34.78;;;;;;;8.01;95.72;96049.59;5099186;28;20056;-86
2024/02/11 05:53:05;;;;;;;67.22;37.78;;;;;;;7.96;95.81;96057.69;5066376;28;20102;-86
2024/02/11 05:55:31;;;;;;;65.07;36.53;;;;;;;7.94;95.58;96044.72;5094820;28;20023;-86
2024/02/11 05:57:57;;;;;;;66.00;36.85;;;;;;;8.00;95.61;96061.31;5096983;28;20487;-86
2024/02/11 06:00:24;;;;;;;64.25;36.90;;;;;;;7.72;96.09;96010.16;5076666;28;20047;-87
2024/02/11 06:02:53;;;;;;;59.67;36.40;;;;;;;8.14;96.06;96057.53;5079362;28;20402;-85
2024/02/11 06:05:20;;;;;;;62.80;37.33;;;;;;;8.16;94.79;96062.53;5077981;28;20030;-86
2024/02/11 06:07:59;;;;;;;62.20;36.15;;;;;;;7.95;95.21;96048.91;5095355;28;20494;-86
2024/02/11 06:10:26;;;;;;;65.95;35.85;;;;;;;7.94;94.96;96043.91;5083317;28;20039;-87
2024/02/11 06:12:51;;;;;;;62.70;37.50;;;;;;;8.24;94.61;96069.78;5060760;28;20124;-87
2024/02/11 06:15:21;;;;;;;66.85;37.42;;;;;;;8.23;94.31;96070.88;5076637;28;20459;-86
2024/02/11 06:17:50;;;;;;;64.25;36.03;;;;;;;8.20;95.18;96074.91;5099972;28;20077;-86
2024/02/11 06:20:20;;;;;;;63.17;36.20;;;;;;;8.16;94.91;96073.16;5077151;28;20486;-87
2024/02/11 06:22:49;;;;;;;66.25;36.95;;;;;;;8.17;94.21;96072.06;5091947;28;20089;-86
2024/02/11 06:25:16;;;;;;;69.80;38.65;;;;;;;7.86;95.73;96071.97;5100386;28;20056;-87
2024/02/11 06:27:41;;;;;;;60.35;36.15;;;;;;;8.20;95.41;96087.41;5074141;28;20035;-85
2024/02/11 06:30:13;;;;;;;67.97;37.25;;;;;;;8.33;94.02;96081.28;5095748;28;20032;-86
2024/02/11 06:32:51;;;;;;;68.43;36.90;;;;;;;8.06;93.97;96054.81;5079966;28;20020;-86
2024/02/11 06:35:18;;;;;;;68.53;36.95;;;;;;;7.94;94.58;96073.13;5091133;28;20047;-87
2024/02/11 06:37:46;;;;;;;68.65;37.72;;;;;;;7.86;95.26;96074.63;5096615;28;20047;-85
2024/02/11 06:40:17;;;;;;;64.85;37.40;;;;;;;7.80;96.00;96093.63;5062126;28;20031;-86
2024/02/11 06:42:47;;;;;;;63.90;37.00;;;;;;;7.73;96.04;96072.78;5074267;28;20036;-86
2024/02/11 06:45:12;;;;;;;66.70;37.67;;;;;;;7.97;95.37;96093.78;5059824;28;20031;-86
2024/02/11 06:47:38;;;;;;;65.60;37.75;;;;;;;7.81;95.56;96074.75;5059921;28;20037;-85
2024/02/11 06:50:08;;;;;;;64.65;36.97;;;;;;;7.92;96.30;96117.78;5074560;28;20411;-86
2024/02/11 06:52:35;;;;;;;64.88;38.72;;;;;;;7.89;96.54;96121.03;5091707;28;20033;-86
2024/02/11 06:55:01;;;;;;;69.40;38.58;;;;;;;7.90;96.44;96118.09;5095872;28;20031;-85
2024/02/11 06:57:29;;;;;;;58.55;36.10;;;;;;;7.80;96.04;96097.06;5091007;28;20028;-86
2024/02/11 06:59:56;;;;;;;69.60;40.25;;;;;;;8.10;95.15;96124.84;5072652;28;20154;-85
2024/02/11 07:02:22;;;;;;;65.10;38.08;;;;;;;8.07;95.40;96134.19;5069897;28;20028;-87
2024/02/11 07:04:47;;;;;;;64.57;37.72;;;;;;;7.85;96.05;96120.06;5091134;28;20119;-87
2024/02/11 07:07:12;;;;;;;61.35;35.70;;;;;;;8.01;95.47;96143.34;5085159;28;20024;-86
2024/02/11 07:09:39;;;;;;;60.92;37.88;;;;;;;7.99;95.45;96145.53;5054628;28;20403;-87
2024/02/11 07:12:06;;;;;;;72.75;39.10;;;;;;;7.50;95.14;96065.81;5093363;28;20126;-85
2024/02/11 07:14:32;;;;;;;64.65;37.15;;;;;;;7.94;95.69;96142.97;5073439;28;20084;-87
2024/02/11 07:17:00;;;;;;;68.13;39.30;;;;;;;7.98;96.45;96157.22;5093176;28;20028;-87
2024/02/11 07:19:26;;;;;;;70.22;37.70;;;;;;;7.92;95.59;96154.97;5074719;28;20028;-85
2024/02/11 07:21:52;;;;;;;68.65;40.03;;;;;;;7.99;95.92;96152.69;5075125;28;20181;-86
2024/02/11 07:24:18;;;;;;;66.28;38.50;;;;;;;7.69;95.20;96111.63;5095725;28;20032;-86
2024/02/11 07:26:43;;;;;;;63.47;38.17;;;;;;;7.99;95.37;96177.41;5073938;28;20027;-86
2024/02/11 07:29:09;;;;;;;67.03;40.33;;;;;;;8.03;94.96;96169.59;5077287;28;20091;-86
2024/02/11 07:31:36;;;;;;;67.80;38.50;;;;;;;8.00;95.63;96170.19;5040623;28;20096;-86
2024/02/11 07:34:02;;;;;;;69.07;39.88;;;;;;;7.84;95.54;96148.47;5077474;28;20424;-87
2024/02/11 07:36:28;;;;;;;72.85;39.42;;;;;;;8.23;95.23;96185.13;5081521;28;20024;-85
2024/02/11 07:38:54;;;;;;;70.40;40.15;;;;;;;8.15;94.34;96180.50;5086853;28;20023;-86
2024/02/11 07:41:21;;;;;;;70.72;40.00;;;;;;;7.97;95.31;96163.59;5088549;28;20020;-86
2024/02/11 07:43:47;;;;;;;73.82;40.97;;;;;;;7.91;96.39;96183.38;5058277;28;20513;-86
2024/02/11 07:46:16;;;;;;;68.68;39.50;;;;;;;7.93;96.45;96185.75;5084645;28;20103;-86
2024/02/11 07:48:42;;;;;;;71.45;38.53;;;;;;;7.29;96.72;96099.94;5088956;28;20081;-86
2024/02/11 07:51:08;;;;;;;65.90;39.10;;;;;;;7.60;97.18;96161.16;5083262;28;20122;-87
2024/02/11 07:53:34;;;;;;;71.60;39.53;;;;;;;7.61;97.59;96159.28;5074694;28;20453;-87
2024/02/11 07:56:01;;;;;;;67.40;39.00;;;;;;;7.70;97.71;96184.09;5073308;28;20124;-86
2024/02/11 07:58:26;;;;;;;71.50;38.58;;;;;;;7.72;97.75;96180.06;5076118;28;20020;-86
2024/02/11 08:00:51;;;;;;;72.00;42.00;;;;;;;7.41;99.40;96181.69;5078724;28;20028;-87
2024/02/11 08:03:17;;;;;;;72.30;40.67;;;;;;;7.64;98.66;96169.34;5069399;28;20059;-87
2024/02/11 08:05:44;;;;;;;69.47;39.42;;;;;;;7.90;97.75;96191.66;5089222;28;20536;-86
2024/02/11 08:08:09;;;;;;;68.50;39.58;;;;;;;7.57;97.66;96145.84;5074454;28;20024;-87
2024/02/11 08:10:35;;;;;;;71.47;40.47;;;;;;;7.32;98.07;96117.13;5058217;28;20037;-87
2024/02/11 08:13:00;;;;;;;67.40;38.17;;;;;;;7.69;98.34;96170.00;5077545;28;20470;-87
2024/02/11 08:15:25;;;;;;;69.97;39.22;;;;;;;7.80;98.19;96186.56;5075685;28;20040;-87
2024/02/11 08:17:51;;;;;;;69.72;38.42;;;;;;;7.75;97.46;96163.53;5075339;28;20035;-87
2024/02/11 08:20:18;;;;;;;69.97;39.33;;;;;;;7.88;97.53;96186.66;5075484;28;20036;-87
2024/02/11 08:22:45;;;;;;;71.22;41.80;;;;;;;7.88;97.02;96189.31;5088047;28;20057;-87
2024/02/11 08:25:11;;;;;;;71.95;38.08;;;;;;;7.75;97.60;96155.59;5091416;28;20032;-86
2024/02/11 08:27:38;;;;;;;74.85;40.33;;;;;;;8.06;96.68;96179.66;5076067;28;20019;-86
2024/02/11 08:30:12;;;;;;;69.10;38.13;;;;;;;7.90;96.90;96178.38;5079133;28;20060;-87
2024/02/11 08:32:38;;;;;;;73.45;40.50;;;;;;;7.59;96.47;96122.44;5086090;28;20046;-85
2024/02/11 08:35:08;;;;;;;67.45;38.70;;;;;;;7.84;97.85;96198.16;5075352;28;20081;-87
2024/02/11 08:37:38;;;;;;;72.15;40.88;;;;;;;7.96;97.41;96201.09;5075655;28;20024;-87
2024/02/11 08:40:04;;;;;;;68.22;37.90;;;;;;;8.14;97.37;96208.16;5075755;28;20123;-87
2024/02/11 08:42:29;;;;;;;69.55;37.65;;;;;;;7.92;97.34;96208.09;5090371;28;20048;-86
2024/02/11 08:44:55;;;;;;;72.18;41.50;;;;;;;7.89;97.02;96198.81;5052977;28;20693;-87
2024/02/11 08:47:21;;;;;;;70.88;38.30;;;;;;;7.77;98.63;96195.09;5056266;28;20043;-86
2024/02/11 08:49:48;;;;;;;73.18;39.38;;;;;;;7.86;98.02;96204.75;5078753;28;20055;-86
2024/02/11 08:52:14;;;;;;;75.75;41.83;;;;;;;7.69;98.88;96195.78;5060682;28;20032;-86
2024/02/11 08:54:40;;;;;;;73.13;40.92;;;;;;;7.83;99.59;96220.47;5069293;28;20032;-87
2024/02/11 08:57:07;;;;;;;79.25;43.90;;;;;;;7.60;100.00;96206.28;5072420;28;20052;-87
2024/02/11 08:59:32;;;;;;;76.97;43.60;;;;;;;7.93;99.79;96234.34;5089624;28;20483;-86
2024/02/11 09:01:58;;;;;;;73.07;39.35;;;;;;;7.91;98.90;96238.34;5087063;28;20043;-86
2024/02/11 09:04:24;;;;;;;70.72;38.47;;;;;;;8.15;97.58;96239.75;5079597;28;20032;-86
2024/02/11 09:06:52;;;;;;;69.55;40.28;;;;;;;8.03;97.33;96214.75;5076595;28;20149;-87
2024/02/11 09:09:25;;;;;;;65.78;38.20;;;;;;;8.04;97.52;96232.25;5075634;28;20032;-86
2024/02/11 09:11:57;;;;;;;61.33;36.58;;;;;;;8.11;96.79;96237.97;5075856;28;20036;-86
2024/02/11 09:14:29;;;;;;;62.42;38.15;;;;;;;8.11;97.00;96222.03;5057197;28;20116;-87
2024/02/11 09:16:58;;;;;;;72.13;38.70;;;;;;;7.67;98.88;96246.50;5065522;28;20031;-87
2024/02/11 09:19:25;;;;;;;71.20;39.80;;;;;;;7.86;99.16;96246.44;5063225;28;20065;-87
2024/02/11 09:21:51;;;;;;;71.95;40.50;;;;;;;7.99;98.73;96225.22;5077985;28;20028;-87
2024/02/11 09:24:17;;;;;;;68.05;39.05;;;;;;;8.14;97.42;96256.78;5091792;28;20100;-87
2024/02/11 09:26:43;;;;;;;67.22;39.90;;;;;;;7.97;95.90;96200.03;5062833;28;20036;-87
2024/02/11 09:29:08;;;;;;;61.50;36.45;;;;;;;8.15;96.92;96252.22;5063630;28;20028;-88
2024/02/11 09:31:34;;;;;;;61.08;36.58;;;;;;;8.19;96.30;96222.13;5079552;28;20130;-88
2024/02/11 09:34:00;;;;;;;67.38;38.63;;;;;;;8.14;95.45;96203.66;5078012;28;20027;-87
2024/02/11 09:36:28;;;;;;;56.58;34.80;;;;;;;8.40;96.35;96259.72;5078877;28;20035;-87
2024/02/11 09:38:53;;;;;;;62.78;35.70;;;;;;;8.50;95.38;96246.22;5079645;28;20023;-87
2024/02/11 09:41:18;;;;;;;61.58;36.72;;;;;;;8.49;95.08;96252.63;5074135;28;20020;-87
2024/02/11 09:43:47;;;;;;;62.90;36.58;;;;;;;8.70;95.24;96267.06;5083880;28;20036;-88
2024/02/11 09:46:17;;;;;;;54.33;33.13;;;;;;;8.76;94.28;96262.41;5088534;28;20028;-87
2024/02/11 09:48:45;;;;;;;57.80;33.95;;;;;;;8.55;93.47;96237.34;5090843;28;20024;-87
2024/02/11 09:51:12;;;;;;;66.28;36.00;;;;;;;8.44;93.90;96222.69;5094183;28;20085;-87
2024/02/11 09:53:39;;;;;;;57.50;33.90;;;;;;;8.61;95.03;96258.22;5081659;28;20033;-87
2024/02/11 09:56:06;;;;;;;53.22;33.15;;;;;;;8.51;94.81;96239.84;5056941;28;20049;-87
2024/02/11 09:58:31;;;;;;;52.17;33.33;;;;;;;8.49;95.48;96247.31;5097070;28;20020;-88
2024/02/11 10:00:58;;;;;;;55.13;33.50;;;;;;;8.65;95.10;96261.84;5076279;28;20114;-87
2024/02/11 10:03:26;;;;;;;53.30;32.13;;;;;;;8.67;94.39;96265.00;5059305;28;20471;-87
2024/02/11 10:05:55;;;;;;;52.90;33.40;;;;;;;8.69;94.73;96268.13;5072396;28;20062;-87
2024/02/11 10:08:23;;;;;;;52.80;32.05;;;;;;;8.45;94.49;96237.59;5067969;28;20051;-87
2024/02/11 10:10:50;;;;;;;54.55;33.80;;;;;;;8.72;94.83;96275.53;5057666;28;20047;-87
2024/02/11 10:13:21;;;;;;;51.58;33.85;;;;;;;8.47;94.76;96230.88;5089758;28;20088;-87
2024/02/11 10:15:47;;;;;;;53.13;32.78;;;;;;;8.82;94.88;96261.22;5091900;28;20095;-88
2024/02/11 10:18:17;;;;;;;52.33;32.53;;;;;;;8.80;95.80;96266.06;5070056;28;20020;-88
2024/02/11 10:20:46;;;;;;;37.40;25.08;;;;;;;8.64;98.00;96262.94;5052599;28;20027;-86
2024/02/11 10:23:11;;;;;;;48.38;30.23;;;;;;;8.90;96.69;96263.16;5060708;28;20506;-85
2024/02/11 10:25:36;;;;;;;45.80;28.40;;;;;;;8.78;96.48;96255.69;5087295;28;20040;-85
2024/02/11 10:28:04;;;;;;;40.50;27.40;;;;;;;8.73;97.24;96277.13;5070408;28;20470;-86
2024/02/11 10:30:30;;;;;;;45.47;27.02;;;;;;;8.80;98.08;96277.47;5068749;28;20043;-86
2024/02/11 10:32:59;;;;;;;37.05;23.85;;;;;;;8.68;97.54;96247.97;5077867;28;20024;-86
2024/02/11 10:35:33;;;;;;;38.15;25.85;;;;;;;8.75;98.49;96282.91;5043264;28;20082;-85
2024/02/11 10:37:59;;;;;;;37.70;22.95;;;;;;;8.39;99.65;96260.03;5080368;28;20470;-85
2024/02/11 10:40:25;;;;;;;32.03;18.13;;;;;;;8.57;99.53;96280.38;5061110;28;20036;-86
2024/02/11 10:42:51;;;;;;;29.38;19.10;;;;;;;8.15;99.76;96229.13;5079159;28;20016;-86
2024/02/11 10:45:17;;;;;;;17.83;13.27;;;;;;;8.39;100.00;96262.69;5077538;28;20032;-85
2024/02/11 10:47:43;;;;;;;26.60;17.35;;;;;;;8.60;99.30;96251.34;5064723;28;20033;-85
2024/02/11 10:50:11;;;;;;;23.30;17.05;;;;;;;8.42;98.58;96240.81;5027253;28;20037;-86
2024/02/11 10:52:42;;;;;;;21.15;14.93;;;;;;;8.71;100.00;96281.94;5053242;28;20021;-85
2024/02/11 10:55:12;;;;;;;20.40;13.60;;;;;;;8.50;99.14;96253.41;5039722;28;20047;-85
2024/02/11 10:57:58;;;;;;;19.58;13.98;;;;;;;8.68;100.00;96282.53;5047460;28;20508;-86
2024/02/11 11:00:26;;;;;;;22.05;14.63;;;;;;;8.68;99.39;96277.22;5056958;28;20044;-86
2024/02/11 11:02:57;;;;;;;18.08;12.48;;;;;;;8.60;100.00;96299.19;5051146;28;20524;-86
2024/02/11 11:05:26;;;;;;;19.38;13.57;;;;;;;8.35;100.00;96261.69;5077722;28;20029;-86
2024/02/11 11:07:55;;;;;;;17.90;13.23;;;;;;;8.64;100.00;96288.75;5040253;28;20039;-86
2024/02/11 11:10:20;;;;;;;14.75;11.45;;;;;;;8.57;100.00;96280.38;5053836;28;20036;-87
2024/02/11 11:12:46;;;;;;;14.73;11.40;;;;;;;8.61;100.00;96262.75;5057583;28;20291;-86
2024/02/11 11:15:12;;;;;;;18.88;12.23;;;;;;;8.56;99.67;96278.81;5051074;28;20060;-86
2024/02/11 11:17:37;;;;;;;12.50;10.05;;;;;;;8.72;100.00;96283.50;5070283;28;20063;-86
2024/02/11 11:20:12;;;;;;;14.15;10.63;;;;;;;8.42;100.00;96252.25;5056351;28;20717;-86
2024/02/11 11:22:38;;;;;;;14.57;11.30;;;;;;;8.68;100.00;96279.88;5039263;28;20028;-85